Time;durP1;ratioP1;P1;durP2;ratioP2;P2;SDS_P1;SDS_P2;PMS_P1;PMS_P2;Temp;Humidity;BMP_temperature;BMP_pressure;BME280_temperature;BME280_humidity;BME280_pressure;Samples;Min_cycle;Max_cycle;Signal;HPM_P1;HPM_P2
2020/12/18 00:00:13;;;;;;;5.80;2.83;;;;;12.00;101894.00;;;;5105650;28;20797;-75
2020/12/18 00:02:40;;;;;;;6.10;2.80;;;;;12.00;101896.00;;;;5108114;28;20208;-75
2020/12/18 00:05:07;;;;;;;3.38;2.45;;;;;12.00;101901.00;;;;5101570;28;20190;-75
2020/12/18 00:07:33;;;;;;;4.82;3.20;;;;;12.00;101895.00;;;;5087803;28;20247;-76
2020/12/18 00:10:00;;;;;;;5.43;3.17;;;;;12.00;101890.00;;;;5088278;28;20194;-75
2020/12/18 00:12:27;;;;;;;4.13;2.97;;;;;12.00;101891.00;;;;5078985;28;20193;-76
2020/12/18 00:14:54;;;;;;;3.67;2.63;;;;;12.00;101897.00;;;;5098306;28;20225;-75
2020/12/18 00:17:21;;;;;;;5.10;3.25;;;;;11.90;101887.00;;;;5103987;28;20683;-75
2020/12/18 00:19:48;;;;;;;6.03;3.00;;;;;11.90;101891.00;;;;5087662;28;20205;-76
2020/12/18 00:22:14;;;;;;;3.83;2.80;;;;;11.90;101886.00;;;;5093531;28;20205;-75
2020/12/18 00:24:43;;;;;;;4.90;3.17;;;;;11.90;101883.00;;;;5087657;28;20202;-75
2020/12/18 00:27:10;;;;;;;4.90;3.28;;;;;11.90;101889.00;;;;5094809;28;20190;-75
2020/12/18 00:29:37;;;;;;;4.38;3.05;;;;;11.90;101881.00;;;;5094463;28;20198;-76
2020/12/18 00:32:04;;;;;;;5.53;2.97;;;;;11.90;101879.00;;;;5104571;28;20194;-75
2020/12/18 00:34:32;;;;;;;3.78;2.90;;;;;11.90;101884.00;;;;5107882;28;20312;-75
2020/12/18 00:36:58;;;;;;;4.20;3.10;;;;;11.90;101881.00;;;;5095682;28;20193;-75
2020/12/18 00:39:25;;;;;;;7.20;3.58;;;;;11.80;101885.00;;;;5091226;28;20213;-76
2020/12/18 00:41:53;;;;;;;5.88;3.10;;;;;11.80;101882.00;;;;5088646;28;20190;-75
2020/12/18 00:44:20;;;;;;;4.55;3.30;;;;;11.80;101879.00;;;;5107934;28;20300;-75
2020/12/18 00:46:47;;;;;;;4.70;2.83;;;;;11.80;101885.00;;;;5107202;28;20198;-75
2020/12/18 00:49:14;;;;;;;3.60;3.08;;;;;11.80;101875.00;;;;5108443;28;20221;-75
2020/12/18 00:51:41;;;;;;;5.00;3.35;;;;;11.80;101877.00;;;;5104868;28;20185;-75
2020/12/18 00:54:08;;;;;;;4.80;3.25;;;;;11.80;101876.00;;;;5111664;28;20221;-75
2020/12/18 00:56:35;;;;;;;4.97;2.65;;;;;11.80;101880.00;;;;5100412;28;20289;-75
2020/12/18 00:59:02;;;;;;;3.88;2.50;;;;;11.80;101864.00;;;;5091281;28;20602;-75
2020/12/18 01:01:28;;;;;;;6.10;3.17;;;;;11.80;101877.00;;;;5100710;28;20218;-75
2020/12/18 01:03:55;;;;;;;6.15;3.05;;;;;11.80;101872.00;;;;5112347;28;20193;-75
2020/12/18 01:06:22;;;;;;;4.57;3.35;;;;;11.80;101880.00;;;;5102978;28;20201;-75
2020/12/18 01:08:49;;;;;;;4.70;3.05;;;;;11.80;101879.00;;;;5091212;28;20239;-75
2020/12/18 01:11:16;;;;;;;5.85;3.08;;;;;11.80;101878.00;;;;5092729;28;20198;-75
2020/12/18 01:13:43;;;;;;;4.78;3.40;;;;;11.80;101873.00;;;;5091044;28;20233;-75
2020/12/18 01:16:12;;;;;;;6.03;3.03;;;;;11.70;101873.00;;;;5096114;28;20194;-74
2020/12/18 01:18:39;;;;;;;3.53;2.60;;;;;11.80;101878.00;;;;5090865;28;20285;-75
2020/12/18 01:21:06;;;;;;;6.30;3.33;;;;;11.70;101881.00;;;;5095710;28;20200;-75
2020/12/18 01:23:32;;;;;;;3.95;2.97;;;;;11.70;101881.00;;;;5069773;28;20203;-75
2020/12/18 01:26:00;;;;;;;3.97;2.50;;;;;11.70;101882.00;;;;5076279;28;20191;-74
2020/12/18 01:28:27;;;;;;;5.50;2.63;;;;;11.70;101892.00;;;;5070325;28;20691;-75
2020/12/18 01:30:53;;;;;;;3.90;3.05;;;;;11.70;101886.00;;;;5083548;28;20190;-75
2020/12/18 01:33:20;;;;;;;5.95;2.53;;;;;11.70;101895.00;;;;5090874;28;20268;-74
2020/12/18 01:35:47;;;;;;;4.35;2.97;;;;;11.70;101895.00;;;;5093091;28;20241;-75
2020/12/18 01:38:14;;;;;;;4.05;2.65;;;;;11.70;101888.00;;;;5111501;28;20205;-74
2020/12/18 01:40:40;;;;;;;4.28;2.97;;;;;11.70;101881.00;;;;5100126;28;20259;-75
2020/12/18 01:43:08;;;;;;;4.45;2.78;;;;;11.70;101880.00;;;;5090831;28;20202;-75
2020/12/18 01:45:35;;;;;;;5.30;2.83;;;;;11.70;101881.00;;;;5104395;28;20205;-75
2020/12/18 01:48:02;;;;;;;5.25;2.42;;;;;11.60;101871.00;;;;5082845;28;20217;-75
2020/12/18 01:50:31;;;;;;;5.28;2.85;;;;;11.60;101882.00;;;;5091036;28;20202;-75
2020/12/18 01:52:59;;;;;;;5.68;3.20;;;;;11.60;101886.00;;;;5092305;28;20251;-75
2020/12/18 01:55:27;;;;;;;6.15;2.92;;;;;11.60;101886.00;;;;5090113;28;20198;-75
2020/12/18 01:57:55;;;;;;;3.53;3.20;;;;;11.60;101883.00;;;;5108281;28;20726;-75
2020/12/18 02:00:24;;;;;;;3.95;2.60;;;;;11.60;101873.00;;;;5109695;28;20574;-75
2020/12/18 02:02:51;;;;;;;8.48;3.65;;;;;11.60;101871.00;;;;5084530;28;20186;-75
2020/12/18 02:05:17;;;;;;;4.00;2.67;;;;;11.60;101872.00;;;;5089779;28;20804;-75
2020/12/18 02:07:55;;;;;;;4.47;2.97;;;;;11.60;101863.00;;;;5108743;28;20275;-75
2020/12/18 02:10:22;;;;;;;6.30;3.03;;;;;11.60;101864.00;;;;5110061;28;20194;-75
2020/12/18 02:12:48;;;;;;;5.28;2.60;;;;;11.60;101870.00;;;;5090814;28;20200;-75
2020/12/18 02:15:16;;;;;;;3.40;2.65;;;;;11.60;101865.00;;;;5089866;28;20725;-75
2020/12/18 02:17:44;;;;;;;5.25;2.55;;;;;11.60;101862.00;;;;5107077;28;20209;-75
2020/12/18 02:20:10;;;;;;;4.32;2.67;;;;;11.60;101869.00;;;;5109949;28;20667;-74
2020/12/18 02:22:37;;;;;;;3.85;2.28;;;;;11.60;101864.00;;;;5105743;28;20202;-75
2020/12/18 02:25:07;;;;;;;3.10;2.30;;;;;11.50;101861.00;;;;5109867;28;20212;-75
2020/12/18 02:27:36;;;;;;;6.57;2.65;;;;;11.50;101862.00;;;;5092522;28;20225;-75
2020/12/18 02:30:03;;;;;;;5.45;2.85;;;;;11.50;101859.00;;;;5089645;28;20272;-75
2020/12/18 02:32:30;;;;;;;4.30;2.67;;;;;11.50;101870.00;;;;5098647;28;20263;-75
2020/12/18 02:34:57;;;;;;;4.57;2.45;;;;;11.50;101860.00;;;;5109444;28;20229;-75
2020/12/18 02:37:24;;;;;;;3.88;2.53;;;;;11.50;101869.00;;;;5107444;28;20671;-75
2020/12/18 02:39:55;;;;;;;5.00;3.15;;;;;11.50;101855.00;;;;5094132;28;20569;-75
2020/12/18 02:42:22;;;;;;;5.05;2.95;;;;;11.50;101856.00;;;;5080309;28;20213;-74
2020/12/18 02:44:50;;;;;;;5.60;2.67;;;;;11.50;101858.00;;;;5091948;28;20213;-75
2020/12/18 02:47:16;;;;;;;6.57;2.90;;;;;11.50;101847.00;;;;5095852;28;20209;-75
2020/12/18 02:49:43;;;;;;;6.55;3.05;;;;;11.50;101857.00;;;;5089809;28;20207;-75
2020/12/18 02:52:11;;;;;;;6.03;3.40;;;;;11.50;101855.00;;;;5099098;28;20194;-75
2020/12/18 02:54:37;;;;;;;7.22;2.95;;;;;11.50;101853.00;;;;5088444;28;20221;-75
2020/12/18 02:57:04;;;;;;;10.88;3.35;;;;;11.50;101851.00;;;;5092020;28;20568;-75
2020/12/18 02:59:31;;;;;;;4.95;2.65;;;;;11.50;101846.00;;;;5108900;28;20227;-75
2020/12/18 03:01:58;;;;;;;6.80;2.60;;;;;11.50;101842.00;;;;5108216;28;20201;-75
2020/12/18 03:04:25;;;;;;;4.05;2.38;;;;;11.50;101848.00;;;;5108820;28;20205;-75
2020/12/18 03:06:52;;;;;;;4.50;2.55;;;;;11.50;101850.00;;;;5108166;28;20682;-75
2020/12/18 03:09:18;;;;;;;5.65;2.60;;;;;11.50;101845.00;;;;5097648;28;20197;-76
2020/12/18 03:11:45;;;;;;;5.95;2.20;;;;;11.50;101848.00;;;;5104109;28;20618;-75
2020/12/18 03:14:12;;;;;;;4.47;2.03;;;;;11.40;101843.00;;;;5087317;28;20221;-75
2020/12/18 03:16:39;;;;;;;6.45;3.22;;;;;11.40;101842.00;;;;5088590;28;20273;-75
2020/12/18 03:19:07;;;;;;;6.32;2.92;;;;;11.40;101841.00;;;;5088802;28;20206;-75
2020/12/18 03:21:33;;;;;;;3.92;2.40;;;;;11.40;101848.00;;;;5099342;28;20831;-75
2020/12/18 03:24:00;;;;;;;4.60;2.80;;;;;11.40;101844.00;;;;5088388;28;20201;-75
2020/12/18 03:26:27;;;;;;;2.83;2.13;;;;;11.40;101843.00;;;;5088435;28;20652;-75
2020/12/18 03:28:53;;;;;;;4.38;2.67;;;;;11.40;101835.00;;;;5076216;28;20201;-75
2020/12/18 03:31:20;;;;;;;5.50;2.58;;;;;11.40;101844.00;;;;5087701;28;20202;-75
2020/12/18 03:33:47;;;;;;;5.50;2.90;;;;;11.40;101841.00;;;;5088091;28;20221;-75
2020/12/18 03:36:14;;;;;;;6.38;3.15;;;;;11.40;101843.00;;;;5088597;28;20198;-75
2020/12/18 03:38:41;;;;;;;6.13;2.72;;;;;11.40;101846.00;;;;5094832;28;20190;-75
2020/12/18 03:41:08;;;;;;;4.13;2.58;;;;;11.40;101841.00;;;;5088512;28;20190;-75
2020/12/18 03:43:35;;;;;;;4.18;2.78;;;;;11.40;101835.00;;;;5103492;28;20200;-75
2020/12/18 03:46:02;;;;;;;4.97;2.70;;;;;11.40;101836.00;;;;5087014;28;20199;-75
2020/12/18 03:48:29;;;;;;;7.82;2.40;;;;;11.40;101842.00;;;;5102750;28;20662;-75
2020/12/18 03:50:55;;;;;;;3.40;2.03;;;;;11.40;101846.00;;;;5108048;28;20194;-75
2020/12/18 03:53:23;;;;;;;6.90;2.75;;;;;11.40;101847.00;;;;5097281;28;20764;-75
2020/12/18 03:55:50;;;;;;;6.18;2.47;;;;;11.40;101844.00;;;;5088435;28;20201;-75
2020/12/18 03:58:16;;;;;;;5.15;2.28;;;;;11.40;101838.00;;;;5087428;28;20222;-75
2020/12/18 04:00:43;;;;;;;3.72;2.30;;;;;11.40;101837.00;;;;5107088;28;20218;-75
2020/12/18 04:03:10;;;;;;;3.65;2.15;;;;;11.50;101843.00;;;;5090099;28;20209;-75
2020/12/18 04:05:36;;;;;;;3.97;2.38;;;;;11.50;101845.00;;;;5087303;28;20205;-75
2020/12/18 04:08:03;;;;;;;3.05;2.00;;;;;11.50;101839.00;;;;5094162;28;20237;-75
2020/12/18 04:10:34;;;;;;;4.47;2.50;;;;;11.40;101829.00;;;;5087426;28;20190;-75
2020/12/18 04:13:00;;;;;;;4.55;2.15;;;;;11.50;101828.00;;;;5102425;28;20239;-75
2020/12/18 04:15:27;;;;;;;4.43;2.55;;;;;11.50;101832.00;;;;5096958;28;20194;-75
2020/12/18 04:17:54;;;;;;;4.18;2.45;;;;;11.50;101825.00;;;;5101802;28;20679;-75
2020/12/18 04:20:21;;;;;;;3.88;2.17;;;;;11.50;101827.00;;;;5100749;28;20198;-75
2020/12/18 04:22:47;;;;;;;5.55;2.10;;;;;11.50;101825.00;;;;5097719;28;20197;-75
2020/12/18 04:25:14;;;;;;;3.47;1.92;;;;;11.50;101830.00;;;;5109039;28;20201;-75
2020/12/18 04:27:41;;;;;;;3.50;2.28;;;;;11.50;101814.00;;;;5097729;28;20190;-75
2020/12/18 04:30:09;;;;;;;3.28;2.20;;;;;11.60;101809.00;;;;5076558;28;20222;-74
2020/12/18 04:32:35;;;;;;;3.05;2.20;;;;;11.60;101813.00;;;;5095776;28;20197;-75
2020/12/18 04:35:03;;;;;;;5.15;2.05;;;;;11.60;101813.00;;;;5112147;28;20266;-75
2020/12/18 04:37:30;;;;;;;5.68;2.20;;;;;11.60;101815.00;;;;5100726;28;20206;-75
2020/12/18 04:39:57;;;;;;;9.40;2.45;;;;;11.60;101802.00;;;;5091663;28;20668;-75
2020/12/18 04:42:24;;;;;;;3.88;2.03;;;;;11.60;101799.00;;;;5091155;28;20198;-75
2020/12/18 04:44:52;;;;;;;2.30;1.70;;;;;11.70;101799.00;;;;5092129;28;20205;-75
2020/12/18 04:47:21;;;;;;;4.13;2.30;;;;;11.70;101798.00;;;;5092604;28;20194;-75
2020/12/18 04:49:47;;;;;;;6.10;2.30;;;;;11.70;101801.00;;;;5110816;28;20254;-75
2020/12/18 04:52:14;;;;;;;4.15;2.00;;;;;11.70;101806.00;;;;5101765;28;20206;-75
2020/12/18 04:54:41;;;;;;;5.95;2.35;;;;;11.70;101801.00;;;;5090483;28;20230;-75
2020/12/18 04:57:10;;;;;;;5.13;2.45;;;;;11.70;101795.00;;;;5100444;28;20679;-75
2020/12/18 04:59:42;;;;;;;3.47;1.92;;;;;11.70;101803.00;;;;5111366;28;20221;-75
2020/12/18 05:02:10;;;;;;;3.10;2.13;;;;;11.70;101801.00;;;;5101824;27;20714;-75
2020/12/18 05:04:40;;;;;;;3.30;1.90;;;;;11.70;101799.00;;;;5091255;28;20245;-75
2020/12/18 05:07:07;;;;;;;2.28;1.92;;;;;11.80;101801.00;;;;5091869;28;20218;-75
2020/12/18 05:09:33;;;;;;;3.85;1.98;;;;;11.80;101798.00;;;;5091207;28;20206;-75
2020/12/18 05:12:06;;;;;;;3.53;1.98;;;;;11.80;101795.00;;;;5090957;28;20256;-75
2020/12/18 05:14:33;;;;;;;5.05;2.30;;;;;11.80;101797.00;;;;5091732;28;20221;-75
2020/12/18 05:17:06;;;;;;;3.85;1.90;;;;;11.80;101785.00;;;;5104853;28;20197;-75
2020/12/18 05:19:36;;;;;;;5.75;2.28;;;;;11.80;101784.00;;;;5101701;28;20201;-75
2020/12/18 05:22:05;;;;;;;5.70;2.47;;;;;11.90;101781.00;;;;5109479;28;20204;-75
2020/12/18 05:24:32;;;;;;;2.42;1.65;;;;;11.90;101780.00;;;;5107708;28;20693;-75
2020/12/18 05:27:01;;;;;;;3.20;2.10;;;;;11.90;101782.00;;;;5090883;28;20593;-75
2020/12/18 05:29:29;;;;;;;3.15;2.05;;;;;12.00;101783.00;;;;5091570;28;20198;-75
2020/12/18 05:31:58;;;;;;;5.10;2.30;;;;;12.00;101780.00;;;;5102547;28;20199;-75
2020/12/18 05:34:25;;;;;;;4.15;2.22;;;;;12.00;101771.00;;;;5096160;28;20218;-75
2020/12/18 05:36:53;;;;;;;3.63;2.03;;;;;12.00;101762.00;;;;5089708;28;20202;-74
2020/12/18 05:39:20;;;;;;;2.92;1.92;;;;;12.00;101763.00;;;;5090192;28;20707;-75
2020/12/18 05:41:57;;;;;;;3.58;2.05;;;;;12.00;101761.00;;;;5070397;28;20203;-75
2020/12/18 05:44:28;;;;;;;3.13;2.42;;;;;12.00;101763.00;;;;5099576;28;20320;-75
2020/12/18 05:47:03;;;;;;;4.57;2.13;;;;;12.00;101759.00;;;;5089655;28;20202;-75
2020/12/18 05:49:31;;;;;;;3.97;2.00;;;;;12.10;101769.00;;;;5093743;28;20205;-75
2020/12/18 05:51:59;;;;;;;3.08;1.83;;;;;12.10;101762.00;;;;5092702;28;20664;-76
2020/12/18 05:54:33;;;;;;;4.82;1.98;;;;;12.00;101756.00;;;;5108511;28;20225;-75
2020/12/18 05:57:08;;;;;;;3.70;1.73;;;;;12.10;101756.00;;;;5070020;28;20194;-75
2020/12/18 05:59:40;;;;;;;3.67;2.10;;;;;12.10;101761.00;;;;5069421;28;20226;-75
2020/12/18 06:02:12;;;;;;;3.88;1.92;;;;;12.00;101759.00;;;;5098987;28;20210;-76
2020/12/18 06:04:39;;;;;;;3.92;1.95;;;;;12.00;101751.00;;;;5089852;28;20288;-75
2020/12/18 06:07:07;;;;;;;2.13;1.80;;;;;12.00;101752.00;;;;5090573;28;20202;-75
2020/12/18 06:09:35;;;;;;;4.20;2.03;;;;;12.00;101761.00;;;;5102794;28;20201;-75
2020/12/18 06:12:07;;;;;;;2.20;1.58;;;;;12.00;101757.00;;;;5094862;28;20259;-75
2020/12/18 06:14:35;;;;;;;5.03;1.88;;;;;12.10;101758.00;;;;5100601;28;20225;-75
2020/12/18 06:17:07;;;;;;;3.90;1.70;;;;;12.00;101751.00;;;;5099925;28;20198;-75
2020/12/18 06:19:38;;;;;;;1.90;1.38;;;;;12.10;101750.00;;;;5094917;28;20665;-75
2020/12/18 06:22:08;;;;;;;2.67;1.60;;;;;12.10;101749.00;;;;5090697;28;20195;-75
2020/12/18 06:24:41;;;;;;;4.50;1.95;;;;;12.10;101756.00;;;;5086053;28;20221;-76
2020/12/18 06:27:09;;;;;;;2.95;1.65;;;;;12.10;101750.00;;;;5086537;28;20229;-76
2020/12/18 06:29:36;;;;;;;3.78;1.77;;;;;12.10;101747.00;;;;5093613;28;20194;-76
2020/12/18 06:32:24;;;;;;;4.22;2.03;;;;;12.00;101760.00;;;;5102046;28;20243;-76
2020/12/18 06:34:51;;;;;;;3.10;2.10;;;;;12.10;101749.00;;;;5069258;28;20712;-76
2020/12/18 06:37:36;;;;;;;3.13;1.52;;;;;12.00;101742.00;;;;5084423;28;20209;-76
2020/12/18 06:40:03;;;;;;;4.97;1.30;;;;;12.10;101752.00;;;;5090012;28;20197;-75
2020/12/18 06:42:31;;;;;;;1.75;1.15;;;;;12.10;101746.00;;;;5090577;28;20247;-76
2020/12/18 06:44:59;;;;;;;3.38;1.55;;;;;12.10;101749.00;;;;5100922;28;20220;-75
2020/12/18 06:47:31;;;;;;;4.72;1.70;;;;;12.10;101749.00;;;;5109662;28;20213;-75
2020/12/18 06:50:06;;;;;;;3.38;1.60;;;;;12.10;101744.00;;;;5097089;28;20259;-76
2020/12/18 06:52:46;;;;;;;2.65;1.40;;;;;12.10;101751.00;;;;5094985;28;20197;-76
2020/12/18 06:55:14;;;;;;;1.83;1.23;;;;;12.20;101750.00;;;;5077537;28;20232;-75
2020/12/18 06:57:41;;;;;;;3.13;2.10;;;;;12.20;101741.00;;;;5109541;28;20238;-76
2020/12/18 07:00:27;;;;;;;1.92;1.13;;;;;12.10;101744.00;;;;5107414;28;20229;-76
2020/12/18 07:02:55;;;;;;;2.50;1.30;;;;;12.20;101737.00;;;;5091930;27;20202;-76
2020/12/18 07:05:33;;;;;;;2.03;1.35;;;;;12.20;101752.00;;;;5089621;28;20195;-77
2020/12/18 07:08:02;;;;;;;4.68;1.70;;;;;12.20;101750.00;;;;5089922;28;20190;-76
2020/12/18 07:10:31;;;;;;;3.00;1.70;;;;;12.30;101754.00;;;;5096959;28;20605;-76
2020/12/18 07:12:59;;;;;;;7.70;2.20;;;;;12.30;101754.00;;;;5089151;28;20198;-77
2020/12/18 07:15:46;;;;;;;4.00;1.52;;;;;12.40;101751.00;;;;5092058;28;20258;-76
2020/12/18 07:18:14;;;;;;;2.83;1.40;;;;;12.40;101754.00;;;;5102762;28;20210;-76
2020/12/18 07:20:45;;;;;;;3.25;1.15;;;;;12.40;101753.00;;;;5108326;28;20244;-77
2020/12/18 07:23:13;;;;;;;3.20;1.40;;;;;12.50;101754.00;;;;5091121;28;20243;-76
2020/12/18 07:25:40;;;;;;;2.90;1.85;;;;;12.50;101750.00;;;;5096872;28;20283;-77
2020/12/18 07:28:07;;;;;;;1.95;1.25;;;;;12.60;101763.00;;;;5088874;28;20210;-76
2020/12/18 07:30:38;;;;;;;4.32;1.42;;;;;12.60;101759.00;;;;5095406;28;20695;-75
2020/12/18 07:33:05;;;;;;;1.95;1.52;;;;;12.60;101760.00;;;;5094098;28;20198;-75
2020/12/18 07:35:37;;;;;;;3.00;1.70;;;;;12.60;101763.00;;;;5081884;28;20257;-76
2020/12/18 07:38:11;;;;;;;2.60;1.40;;;;;12.70;101768.00;;;;5088612;28;20289;-76
2020/12/18 07:40:39;;;;;;;2.42;1.48;;;;;12.80;101772.00;;;;5088962;28;20275;-76
2020/12/18 07:43:10;;;;;;;3.60;1.75;;;;;12.80;101784.00;;;;5092150;28;20205;-77
2020/12/18 07:45:44;;;;;;;3.92;1.80;;;;;12.80;101782.00;;;;5089666;28;20197;-76
2020/12/18 07:48:15;;;;;;;3.78;1.60;;;;;12.80;101786.00;;;;5092126;28;20197;-76
2020/12/18 07:50:59;;;;;;;3.05;1.73;;;;;12.90;101788.00;;;;5093376;28;20277;-75
2020/12/18 07:53:27;;;;;;;3.22;1.75;;;;;12.90;101783.00;;;;5087794;28;20198;-75
2020/12/18 07:56:08;;;;;;;2.95;2.05;;;;;12.90;101794.00;;;;5088803;28;20198;-75
2020/12/18 07:58:46;;;;;;;4.97;1.80;;;;;12.90;101811.00;;;;5086625;28;20238;-75
2020/12/18 08:01:14;;;;;;;2.28;1.65;;;;;13.00;101799.00;;;;5087801;28;20241;-74
2020/12/18 08:03:45;;;;;;;4.15;2.30;;;;;13.00;101806.00;;;;5104404;28;20208;-75
2020/12/18 08:06:17;;;;;;;3.58;2.13;;;;;13.10;101797.00;;;;5088576;28;20200;-75
2020/12/18 08:08:54;;;;;;;3.30;2.03;;;;;13.10;101803.00;;;;5098240;28;20242;-74
2020/12/18 08:11:22;;;;;;;2.20;1.80;;;;;13.20;101801.00;;;;5107884;28;20735;-75
2020/12/18 08:13:49;;;;;;;4.47;2.15;;;;;13.20;101823.00;;;;5105013;28;20213;-75
2020/12/18 08:16:17;;;;;;;3.05;1.77;;;;;13.20;101816.00;;;;5103443;28;20197;-75
2020/12/18 08:18:47;;;;;;;3.38;2.60;;;;;13.30;101820.00;;;;5093991;28;20678;-75
2020/12/18 08:21:19;;;;;;;4.07;2.90;;;;;13.30;101818.00;;;;5087524;28;20221;-75
2020/12/18 08:23:50;;;;;;;4.50;2.28;;;;;13.30;101832.00;;;;5104972;28;20284;-75
2020/12/18 08:26:18;;;;;;;5.70;2.78;;;;;13.40;101823.00;;;;5107844;28;20200;-75
2020/12/18 08:28:46;;;;;;;3.30;2.75;;;;;13.40;101819.00;;;;5085946;28;20298;-76
2020/12/18 08:31:15;;;;;;;7.18;3.08;;;;;13.40;101821.00;;;;5086886;28;20571;-76
2020/12/18 08:33:50;;;;;;;4.43;3.03;;;;;13.40;101813.00;;;;5087114;28;20713;-76
2020/12/18 08:36:17;;;;;;;4.07;2.63;;;;;13.50;101817.00;;;;5087343;28;20197;-77
2020/12/18 08:39:00;;;;;;;6.45;3.33;;;;;13.40;101818.00;;;;5087729;28;20228;-76
2020/12/18 08:41:37;;;;;;;3.45;2.38;;;;;13.60;101821.00;;;;5087567;28;20205;-77
2020/12/18 08:44:06;;;;;;;4.38;2.92;;;;;13.60;101821.00;;;;5088185;28;20194;-75
2020/12/18 08:46:34;;;;;;;5.25;2.95;;;;;13.60;101830.00;;;;5086547;28;20233;-76
2020/12/18 08:49:01;;;;;;;10.15;3.03;;;;;13.70;101826.00;;;;5084290;28;20562;-76
2020/12/18 08:51:30;;;;;;;4.55;3.17;;;;;13.70;101823.00;;;;5089407;28;20190;-77
2020/12/18 08:54:00;;;;;;;4.55;2.90;;;;;13.70;101815.00;;;;5093323;28;20222;-76
2020/12/18 08:56:28;;;;;;;4.47;2.67;;;;;13.70;101811.00;;;;5102930;28;20660;-76
2020/12/18 08:59:03;;;;;;;6.03;3.13;;;;;13.70;101818.00;;;;5088269;28;20229;-76
2020/12/18 09:01:30;;;;;;;3.55;3.05;;;;;13.80;101819.00;;;;5088796;28;20217;-77
2020/12/18 09:04:02;;;;;;;5.75;3.20;;;;;13.80;101819.00;;;;5088032;28;20663;-77
2020/12/18 09:06:32;;;;;;;7.55;3.33;;;;;13.90;101824.00;;;;5086541;28;20285;-76
2020/12/18 09:09:34;;;;;;;4.45;2.42;;;;;13.90;101825.00;;;;5087137;28;20236;-77
2020/12/18 09:12:19;;;;;;;3.25;2.53;;;;;13.90;101821.00;;;;5088681;28;20765;-77
2020/12/18 09:14:46;;;;;;;3.72;2.90;;;;;14.00;101829.00;;;;5090997;28;20260;-77
2020/12/18 09:17:17;;;;;;;3.35;2.63;;;;;14.00;101824.00;;;;5091201;28;20194;-77
2020/12/18 09:19:45;;;;;;;4.88;2.97;;;;;14.10;101813.00;;;;5094763;28;20280;-76
2020/12/18 09:22:12;;;;;;;2.95;2.35;;;;;14.10;101809.00;;;;5096520;28;20231;-76
2020/12/18 09:24:40;;;;;;;3.67;2.22;;;;;14.20;101809.00;;;;5096518;28;20639;-77
2020/12/18 09:27:10;;;;;;;3.58;2.30;;;;;14.20;101804.00;;;;5098647;28;20202;-76
2020/12/18 09:29:37;;;;;;;3.78;2.13;;;;;14.30;101802.00;;;;5092107;28;20359;-77
2020/12/18 09:32:04;;;;;;;3.25;2.40;;;;;14.30;101806.00;;;;5090032;28;20350;-77
2020/12/18 09:34:32;;;;;;;4.35;2.83;;;;;14.30;101802.00;;;;5095353;28;20238;-77
2020/12/18 09:36:59;;;;;;;4.35;2.72;;;;;14.30;101805.00;;;;5109649;28;20226;-76
2020/12/18 09:39:25;;;;;;;2.80;2.10;;;;;14.30;101797.00;;;;5108445;28;20197;-76
2020/12/18 09:41:53;;;;;;;4.15;2.05;;;;;14.30;101797.00;;;;5100885;28;20236;-76
2020/12/18 09:44:20;;;;;;;4.75;2.63;;;;;14.40;101797.00;;;;5099823;28;20210;-77
2020/12/18 09:46:46;;;;;;;3.22;2.40;;;;;14.40;101797.00;;;;5089925;28;20430;-77
2020/12/18 09:49:13;;;;;;;5.68;2.20;;;;;14.40;101796.00;;;;5092200;28;20213;-76
2020/12/18 09:51:40;;;;;;;3.67;2.40;;;;;14.40;101797.00;;;;5091084;28;20267;-77
2020/12/18 09:54:06;;;;;;;4.53;2.45;;;;;14.50;101793.00;;;;5110164;28;20213;-77
2020/12/18 09:56:33;;;;;;;3.40;2.60;;;;;14.50;101797.00;;;;5100484;28;20209;-76
2020/12/18 09:59:01;;;;;;;5.22;2.10;;;;;14.50;101801.00;;;;5108306;28;20217;-77
2020/12/18 10:01:27;;;;;;;4.43;2.90;;;;;14.50;101787.00;;;;5102003;28;20647;-77
2020/12/18 10:03:54;;;;;;;3.45;2.47;;;;;14.60;101795.00;;;;5100830;28;20591;-76
2020/12/18 10:06:25;;;;;;;7.72;3.10;;;;;14.50;101797.00;;;;5090488;28;20198;-77
2020/12/18 10:08:52;;;;;;;7.18;2.97;;;;;14.60;101797.00;;;;5082859;28;20622;-77
2020/12/18 10:11:19;;;;;;;4.25;2.22;;;;;14.60;101808.00;;;;5093936;28;20283;-77
2020/12/18 10:13:46;;;;;;;2.55;2.15;;;;;14.60;101795.00;;;;5090152;28;20210;-76
2020/12/18 10:16:13;;;;;;;5.00;3.08;;;;;14.60;101799.00;;;;5094378;28;20212;-76
2020/12/18 10:18:40;;;;;;;7.05;2.67;;;;;14.60;101788.00;;;;5087479;28;20685;-76
2020/12/18 10:21:07;;;;;;;3.78;2.10;;;;;14.70;101787.00;;;;5105028;28;20200;-76
2020/12/18 10:23:34;;;;;;;3.97;1.95;;;;;14.70;101780.00;;;;5101475;28;20652;-76
2020/12/18 10:26:00;;;;;;;3.65;2.20;;;;;14.80;101777.00;;;;5089172;28;20198;-75
2020/12/18 10:28:27;;;;;;;3.53;2.28;;;;;14.80;101787.00;;;;5090029;28;20203;-76
2020/12/18 10:30:54;;;;;;;3.55;2.72;;;;;14.90;101786.00;;;;5089799;28;20198;-76
2020/12/18 10:33:21;;;;;;;3.42;2.10;;;;;14.90;101782.00;;;;5086488;28;20212;-76
2020/12/18 10:35:48;;;;;;;4.50;2.42;;;;;15.00;101786.00;;;;5093557;28;21082;-76
2020/12/18 10:38:15;;;;;;;3.15;2.15;;;;;15.00;101778.00;;;;5089656;28;20224;-76
2020/12/18 10:40:42;;;;;;;7.18;2.08;;;;;15.00;101773.00;;;;5093666;28;20206;-76
2020/12/18 10:43:12;;;;;;;3.70;2.10;;;;;15.10;101771.00;;;;5095410;28;20198;-76
2020/12/18 10:45:39;;;;;;;3.72;2.13;;;;;15.10;101768.00;;;;5100731;28;20198;-75
2020/12/18 10:48:05;;;;;;;4.13;2.25;;;;;15.20;101767.00;;;;5102615;28;20230;-76
2020/12/18 10:50:33;;;;;;;3.42;1.98;;;;;15.30;101759.00;;;;5091551;28;20228;-77
2020/12/18 10:53:00;;;;;;;2.97;1.50;;;;;15.30;101763.00;;;;5084352;28;20284;-79
2020/12/18 10:55:27;;;;;;;4.32;1.83;;;;;15.40;101756.00;;;;5089825;28;20297;-75
2020/12/18 10:57:54;;;;;;;3.42;1.52;;;;;15.50;101750.00;;;;5097231;28;20205;-76
2020/12/18 11:00:21;;;;;;;2.92;1.95;;;;;15.50;101747.00;;;;5096935;28;20257;-74
2020/12/18 11:02:47;;;;;;;2.85;1.48;;;;;15.60;101741.00;;;;5090919;28;22159;-76
2020/12/18 11:05:14;;;;;;;1.60;1.25;;;;;15.60;101744.00;;;;5109581;28;20198;-75
2020/12/18 11:07:42;;;;;;;3.42;1.77;;;;;15.70;101741.00;;;;5093861;28;20251;-75
2020/12/18 11:10:09;;;;;;;4.18;1.73;;;;;15.70;101729.00;;;;5099762;28;20194;-75
2020/12/18 11:12:36;;;;;;;2.15;1.48;;;;;15.80;101729.00;;;;5094148;27;20243;-75
2020/12/18 11:15:03;;;;;;;4.93;1.75;;;;;15.80;101731.00;;;;5088568;28;20290;-75
2020/12/18 11:17:29;;;;;;;4.97;1.38;;;;;15.90;101728.00;;;;5092415;28;20194;-75
2020/12/18 11:19:56;;;;;;;3.67;1.85;;;;;15.90;101727.00;;;;5088748;28;20209;-75
2020/12/18 11:22:23;;;;;;;7.88;1.80;;;;;15.90;101708.00;;;;5087745;28;20205;-75
2020/12/18 11:24:50;;;;;;;2.28;1.60;;;;;15.90;101709.00;;;;5089123;28;20221;-75
2020/12/18 11:27:17;;;;;;;3.45;1.60;;;;;16.00;101698.00;;;;5085916;28;20202;-75
2020/12/18 11:29:44;;;;;;;1.92;1.45;;;;;15.90;101691.00;;;;5091792;28;20195;-75
2020/12/18 11:32:10;;;;;;;3.60;1.67;;;;;15.90;101698.00;;;;5083358;28;20190;-76
2020/12/18 11:34:37;;;;;;;4.00;1.80;;;;;15.90;101694.00;;;;5088158;28;20222;-75
2020/12/18 11:37:04;;;;;;;4.63;1.90;;;;;16.00;101698.00;;;;5094203;28;20190;-76
2020/12/18 11:39:31;;;;;;;2.58;1.65;;;;;16.00;101699.00;;;;5101045;28;20243;-75
2020/12/18 11:41:58;;;;;;;2.47;1.40;;;;;15.90;101684.00;;;;5091383;28;20777;-75
2020/12/18 11:44:25;;;;;;;1.98;1.67;;;;;15.90;101682.00;;;;5088079;28;20568;-75
2020/12/18 11:46:52;;;;;;;4.85;1.88;;;;;15.90;101684.00;;;;5085013;28;20194;-76
2020/12/18 11:49:19;;;;;;;2.30;1.63;;;;;16.00;101682.00;;;;5088305;28;20201;-76
2020/12/18 11:51:46;;;;;;;4.85;1.60;;;;;16.00;101683.00;;;;5105454;28;20190;-76
2020/12/18 11:54:12;;;;;;;3.53;1.70;;;;;16.00;101671.00;;;;5100687;28;20214;-76
2020/12/18 11:56:39;;;;;;;3.45;1.90;;;;;16.00;101672.00;;;;5088053;28;20198;-75
2020/12/18 11:59:08;;;;;;;4.28;1.63;;;;;16.00;101670.00;;;;5087554;28;20241;-76
2020/12/18 12:01:37;;;;;;;7.07;1.85;;;;;16.10;101668.00;;;;5087939;28;20209;-76
2020/12/18 12:04:04;;;;;;;2.72;1.33;;;;;16.10;101670.00;;;;5088907;28;20191;-76
2020/12/18 12:06:30;;;;;;;2.70;1.38;;;;;16.10;101675.00;;;;5089960;28;20190;-75
2020/12/18 12:09:03;;;;;;;2.33;1.38;;;;;16.20;101667.00;;;;5088354;28;20205;-75
2020/12/18 12:11:36;;;;;;;3.45;1.60;;;;;16.20;101662.00;;;;5088107;28;20198;-76
2020/12/18 12:14:03;;;;;;;2.95;1.27;;;;;16.20;101651.00;;;;5088264;28;20696;-75